createdAt,value
2022-08-27T00:02:13.899Z,20.80
2022-08-27T00:04:42.229Z,20.80
2022-08-27T00:07:12.706Z,20.80
2022-08-27T00:09:41.842Z,20.70
2022-08-27T00:12:11.686Z,20.60
2022-08-27T00:14:43.174Z,20.60
2022-08-27T00:17:11.919Z,20.60
2022-08-27T00:19:41.611Z,20.60
2022-08-27T00:22:11.994Z,20.40
2022-08-27T00:24:42.090Z,20.40
2022-08-27T00:27:17.800Z,20.40
2022-08-27T00:29:48.130Z,20.40
2022-08-27T00:32:17.683Z,20.50
2022-08-27T00:34:46.181Z,20.50
2022-08-27T00:37:15.047Z,20.30
2022-08-27T00:39:43.394Z,20.30
2022-08-27T00:42:12.096Z,20.30
2022-08-27T00:44:40.542Z,20.40
2022-08-27T00:47:17.062Z,20.40
2022-08-27T00:49:52.160Z,20.30
2022-08-27T00:52:27.116Z,20.20
2022-08-27T00:55:03.627Z,20.10
2022-08-27T00:57:32.537Z,20.10
2022-08-27T01:00:00.882Z,20.00
2022-08-27T01:02:30.804Z,20.00
2022-08-27T01:05:05.644Z,20.00
2022-08-27T01:07:39.207Z,20.00
2022-08-27T01:10:12.704Z,19.90
2022-08-27T01:12:41.352Z,19.90
2022-08-27T01:15:19.464Z,19.90
2022-08-27T01:17:51.923Z,20.00
2022-08-27T01:20:24.432Z,19.90
2022-08-27T01:23:07.061Z,19.90
2022-08-27T01:25:37.818Z,20.00
2022-08-27T01:28:07.740Z,19.90
2022-08-27T01:30:36.766Z,19.90
2022-08-27T01:33:12.105Z,19.90
2022-08-27T01:35:40.445Z,19.90
2022-08-27T01:38:14.382Z,19.80
2022-08-27T01:41:00.883Z,19.80
2022-08-27T01:43:30.115Z,19.80
2022-08-27T01:45:58.361Z,19.80
2022-08-27T01:48:26.954Z,19.70
2022-08-27T01:50:55.445Z,19.70
2022-08-27T01:53:27.462Z,19.70
2022-08-27T01:55:57.582Z,19.80
2022-08-27T01:58:30.830Z,19.70
2022-08-27T02:01:05.148Z,19.80
2022-08-27T02:03:36.858Z,19.80
2022-08-27T02:06:07.735Z,19.70
2022-08-27T02:08:36.768Z,19.80
2022-08-27T02:11:06.063Z,19.70
2022-08-27T02:13:36.000Z,19.80
2022-08-27T02:16:05.281Z,19.80
2022-08-27T02:18:36.963Z,19.80
2022-08-27T02:21:05.860Z,19.80
2022-08-27T02:23:34.347Z,19.80
2022-08-27T02:26:02.632Z,19.80
2022-08-27T02:28:30.984Z,19.90
2022-08-27T02:31:00.777Z,19.80
2022-08-27T02:33:29.220Z,19.80
2022-08-27T02:35:57.532Z,19.70
2022-08-27T02:38:26.375Z,19.80
2022-08-27T02:40:55.012Z,19.80
2022-08-27T02:43:25.365Z,19.80
2022-08-27T02:45:54.087Z,19.70
2022-08-27T02:48:25.502Z,19.80
2022-08-27T02:50:54.761Z,19.80
2022-08-27T02:53:23.998Z,19.70
2022-08-27T02:55:52.981Z,19.70
2022-08-27T02:58:21.317Z,19.70
2022-08-27T03:00:49.640Z,19.70
2022-08-27T03:03:18.163Z,19.60
2022-08-27T03:05:48.164Z,19.70
2022-08-27T03:08:16.491Z,19.70
2022-08-27T03:10:44.754Z,19.70
2022-08-27T03:13:13.494Z,19.60
2022-08-27T03:15:41.822Z,19.60
2022-08-27T03:18:18.280Z,19.50
2022-08-27T03:20:51.791Z,19.50
2022-08-27T03:23:24.778Z,19.50
2022-08-27T03:25:57.060Z,19.50
2022-08-27T03:28:29.841Z,19.50
2022-08-27T03:31:02.075Z,19.50
2022-08-27T03:33:34.447Z,19.50
2022-08-27T03:36:05.706Z,19.50
2022-08-27T03:38:34.459Z,19.50
2022-08-27T03:41:03.025Z,19.50
2022-08-27T03:43:31.572Z,19.50
2022-08-27T03:46:01.721Z,19.60
2022-08-27T03:48:31.981Z,19.60
2022-08-27T03:51:00.979Z,19.50
2022-08-27T03:53:30.688Z,19.50
2022-08-27T03:55:58.998Z,19.40
2022-08-27T03:58:27.876Z,19.40
2022-08-27T04:00:56.346Z,19.50
2022-08-27T04:03:25.760Z,19.50
2022-08-27T04:05:55.731Z,19.50
2022-08-27T04:08:25.359Z,19.50
2022-08-27T04:10:56.031Z,19.50
2022-08-27T04:13:25.493Z,19.60
2022-08-27T04:15:55.620Z,19.50
2022-08-27T04:18:23.952Z,19.50
2022-08-27T04:20:53.635Z,19.40
2022-08-27T04:23:22.109Z,19.50
2022-08-27T04:25:51.050Z,19.50
2022-08-27T04:28:20.880Z,19.50
2022-08-27T04:30:49.238Z,19.50
2022-08-27T04:33:17.526Z,19.60
2022-08-27T04:35:45.799Z,19.50
2022-08-27T04:38:14.706Z,19.50
2022-08-27T04:41:00.730Z,19.50
2022-08-27T04:43:30.346Z,19.50
2022-08-27T04:45:58.630Z,19.50
2022-08-27T04:48:27.219Z,19.40
2022-08-27T04:50:55.655Z,19.40
2022-08-27T04:53:24.263Z,19.40
2022-08-27T04:55:55.215Z,19.40
2022-08-27T04:58:26.131Z,19.40
2022-08-27T05:00:59.970Z,19.40
2022-08-27T05:03:29.247Z,19.40
2022-08-27T05:06:03.427Z,19.30
2022-08-27T05:08:33.195Z,19.40
2022-08-27T05:11:02.133Z,19.40
2022-08-27T05:13:31.438Z,19.40
2022-08-27T05:16:04.195Z,19.40
2022-08-27T05:18:37.968Z,19.50
2022-08-27T05:21:19.587Z,19.40
2022-08-27T05:23:48.623Z,19.40
2022-08-27T05:26:17.335Z,19.30
2022-08-27T05:28:45.910Z,19.40
2022-08-27T05:31:17.734Z,19.40
2022-08-27T05:33:47.014Z,19.30
2022-08-27T05:36:22.430Z,19.30
2022-08-27T05:38:51.485Z,19.30
2022-08-27T05:41:25.858Z,19.30
2022-08-27T05:44:30.149Z,19.20
2022-08-27T05:46:57.385Z,19.30
2022-08-27T05:49:25.919Z,19.30
2022-08-27T05:51:54.230Z,19.20
2022-08-27T05:54:22.482Z,19.10
2022-08-27T05:56:50.932Z,19.00
2022-08-27T05:59:45.615Z,19.10
2022-08-27T06:02:15.362Z,19.00
2022-08-27T06:04:43.581Z,19.00
2022-08-27T06:07:11.886Z,19.00
2022-08-27T06:09:41.014Z,19.10
2022-08-27T06:12:10.215Z,19.00
2022-08-27T06:14:39.675Z,19.10
2022-08-27T06:17:07.932Z,19.10
2022-08-27T06:19:37.497Z,19.10
2022-08-27T06:22:10.008Z,19.10
2022-08-27T06:24:40.628Z,19.00
2022-08-27T06:27:12.733Z,18.90
2022-08-27T06:29:42.011Z,18.90
2022-08-27T06:32:11.048Z,19.00
2022-08-27T06:34:40.892Z,19.10
2022-08-27T06:37:09.750Z,19.10
2022-08-27T06:39:39.396Z,19.10
2022-08-27T06:42:12.168Z,19.00
2022-08-27T06:44:41.421Z,19.00
2022-08-27T06:47:09.809Z,18.90
2022-08-27T06:49:43.839Z,18.80
2022-08-27T06:52:16.138Z,18.90
2022-08-27T06:54:45.018Z,18.80
2022-08-27T06:57:13.314Z,18.90
2022-08-27T06:59:41.543Z,18.80
2022-08-27T07:02:09.936Z,18.80
2022-08-27T07:04:39.893Z,18.80
2022-08-27T07:07:08.198Z,18.80
2022-08-27T07:09:36.697Z,18.90
2022-08-27T07:12:06.545Z,18.90
2022-08-27T07:14:38.323Z,18.80
2022-08-27T07:17:10.740Z,18.80
2022-08-27T07:19:41.453Z,18.80
2022-08-27T07:22:10.392Z,18.80
2022-08-27T07:24:39.068Z,18.80
2022-08-27T07:27:07.957Z,18.80
2022-08-27T07:29:36.678Z,18.80
2022-08-27T07:32:05.680Z,18.80
2022-08-27T07:34:33.954Z,18.80
2022-08-27T07:37:03.549Z,18.80
2022-08-27T07:39:32.064Z,18.70
2022-08-27T07:42:18.143Z,18.70
2022-08-27T07:44:46.481Z,18.70
2022-08-27T07:47:14.702Z,18.70
2022-08-27T07:49:42.969Z,18.60
2022-08-27T07:52:13.403Z,18.60
2022-08-27T07:54:42.112Z,18.50
2022-08-27T07:57:10.670Z,18.60
2022-08-27T07:59:39.479Z,18.60
2022-08-27T08:02:08.722Z,18.60
2022-08-27T08:04:37.049Z,18.60
2022-08-27T08:07:05.364Z,18.60
2022-08-27T08:09:35.730Z,18.70
2022-08-27T08:12:04.635Z,18.90
2022-08-27T08:14:33.344Z,18.90
2022-08-27T08:17:03.091Z,18.90
2022-08-27T08:19:34.647Z,18.90
2022-08-27T08:22:05.772Z,19.00
2022-08-27T08:24:37.065Z,18.90
2022-08-27T08:27:07.724Z,18.90
2022-08-27T08:29:37.635Z,18.90
2022-08-27T08:32:08.266Z,18.90
2022-08-27T08:34:37.218Z,18.90
2022-08-27T08:37:07.170Z,18.90
2022-08-27T08:39:38.303Z,18.80
2022-08-27T08:42:21.695Z,18.70
2022-08-27T08:44:53.579Z,18.60
2022-08-27T08:47:27.532Z,18.70
2022-08-27T08:50:06.336Z,18.70
2022-08-27T08:52:51.588Z,18.80
2022-08-27T08:55:42.678Z,18.80
2022-08-27T08:58:25.146Z,18.70
2022-08-27T09:00:59.043Z,18.70
2022-08-27T09:03:30.120Z,18.60
2022-08-27T09:06:04.574Z,18.60
2022-08-27T09:08:41.120Z,18.60
2022-08-27T09:11:25.069Z,18.60
2022-08-27T09:13:59.439Z,18.70
2022-08-27T09:16:28.218Z,18.80
2022-08-27T09:18:56.934Z,18.80
2022-08-27T09:21:41.782Z,18.90
2022-08-27T09:24:19.801Z,18.90
2022-08-27T09:26:49.628Z,18.90
2022-08-27T09:29:20.840Z,18.90
2022-08-27T09:31:56.836Z,18.90
2022-08-27T09:34:27.798Z,19.00
2022-08-27T09:37:05.775Z,19.10
2022-08-27T09:39:44.668Z,19.10
2022-08-27T09:42:29.806Z,19.10
2022-08-27T09:44:58.926Z,19.10
2022-08-27T09:47:28.136Z,19.10
2022-08-27T09:50:07.232Z,19.20
2022-08-27T09:52:46.983Z,19.30
2022-08-27T09:55:15.491Z,19.40
2022-08-27T09:57:45.811Z,19.40
2022-08-27T10:00:19.029Z,19.40
2022-08-27T10:02:53.767Z,19.40
2022-08-27T10:05:30.122Z,19.30
2022-08-27T10:08:06.102Z,19.40
2022-08-27T10:10:47.852Z,19.50
2022-08-27T10:13:24.598Z,19.50
2022-08-27T10:16:31.707Z,19.60
2022-08-27T10:19:15.545Z,19.60
2022-08-27T10:21:53.280Z,19.60
2022-08-27T10:24:32.319Z,19.50
2022-08-27T10:27:13.315Z,19.50
2022-08-27T10:29:58.347Z,19.50
2022-08-27T10:32:52.866Z,19.60
2022-08-27T10:35:27.699Z,19.70
2022-08-27T10:38:15.930Z,19.70
2022-08-27T10:40:54.666Z,19.70
2022-08-27T10:43:58.885Z,19.60
2022-08-27T10:46:54.663Z,19.60
2022-08-27T10:49:34.490Z,19.70
2022-08-27T10:52:16.477Z,19.90
2022-08-27T10:54:52.987Z,20.00
2022-08-27T10:57:53.183Z,20.00
2022-08-27T11:00:25.432Z,20.00
2022-08-27T11:03:03.332Z,20.10
2022-08-27T11:05:39.482Z,20.10
2022-08-27T11:08:15.175Z,20.10
2022-08-27T11:10:48.543Z,20.20
2022-08-27T11:13:28.456Z,20.20
2022-08-27T11:15:57.579Z,20.30
2022-08-27T11:18:40.275Z,20.30
2022-08-27T11:21:20.729Z,20.30
2022-08-27T11:23:55.458Z,20.20
2022-08-27T11:26:24.213Z,20.20
2022-08-27T11:28:57.807Z,20.00
2022-08-27T11:31:38.225Z,20.10
2022-08-27T11:34:18.386Z,20.10
2022-08-27T11:37:23.209Z,20.20
2022-08-27T11:40:27.808Z,20.40
2022-08-27T11:43:01.775Z,20.50
2022-08-27T11:45:38.247Z,20.60
2022-08-27T11:48:22.934Z,20.70
2022-08-27T11:50:59.571Z,20.80
2022-08-27T11:53:51.893Z,20.80
2022-08-27T11:56:40.531Z,20.90
2022-08-27T11:59:22.912Z,21.00
2022-08-27T12:01:53.964Z,21.00
2022-08-27T12:04:35.886Z,21.00
2022-08-27T12:07:25.078Z,21.10
2022-08-27T12:10:28.114Z,21.10
2022-08-27T12:13:15.406Z,21.00
2022-08-27T12:16:04.168Z,21.10
2022-08-27T12:19:01.116Z,21.20
2022-08-27T12:21:47.921Z,21.30
2022-08-27T12:24:42.311Z,21.40
2022-08-27T12:27:35.521Z,21.60
2022-08-27T12:30:30.883Z,21.70
2022-08-27T12:33:05.859Z,21.60
2022-08-27T12:35:47.193Z,21.60
2022-08-27T12:38:21.529Z,21.70
2022-08-27T12:40:54.935Z,21.90
2022-08-27T12:43:26.274Z,22.10
2022-08-27T12:46:01.813Z,22.20
2022-08-27T12:48:35.221Z,22.30
2022-08-27T12:51:10.261Z,22.30
2022-08-27T12:53:45.691Z,22.40
2022-08-27T12:56:33.427Z,22.30
2022-08-27T12:59:21.595Z,22.40
2022-08-27T13:02:06.721Z,22.40
2022-08-27T13:04:40.895Z,22.60
2022-08-27T13:07:09.216Z,22.80
2022-08-27T13:09:40.521Z,22.80
2022-08-27T13:12:19.716Z,22.80
2022-08-27T13:14:52.206Z,22.90
2022-08-27T13:17:26.105Z,22.90
2022-08-27T13:20:00.155Z,22.90
2022-08-27T13:22:32.112Z,22.90
2022-08-27T13:25:01.503Z,23.00
2022-08-27T13:27:34.657Z,23.10
2022-08-27T13:30:18.150Z,23.20
2022-08-27T13:33:03.149Z,23.40
2022-08-27T13:35:32.469Z,23.50
2022-08-27T13:38:03.652Z,23.50
2022-08-27T13:40:37.045Z,23.60
2022-08-27T13:43:14.632Z,23.70
2022-08-27T13:45:43.725Z,23.80
2022-08-27T13:48:15.151Z,23.90
2022-08-27T13:50:52.425Z,23.80
2022-08-27T13:53:43.772Z,23.80
2022-08-27T13:56:12.742Z,23.80
2022-08-27T13:58:43.985Z,23.60
2022-08-27T14:01:24.665Z,23.50
2022-08-27T14:04:00.407Z,23.50
2022-08-27T14:06:35.754Z,23.60
2022-08-27T14:09:22.097Z,23.60
2022-08-27T14:11:58.249Z,23.70
2022-08-27T14:14:28.890Z,23.70
2022-08-27T14:17:01.947Z,23.80
2022-08-27T14:19:36.606Z,23.70
2022-08-27T14:22:06.131Z,23.50
2022-08-27T14:24:34.440Z,23.60
2022-08-27T14:27:11.133Z,23.80
2022-08-27T14:29:40.991Z,24.00
2022-08-27T14:32:09.705Z,24.10
2022-08-27T14:34:38.462Z,24.20
2022-08-27T14:37:07.735Z,24.30
2022-08-27T14:39:36.404Z,24.30
2022-08-27T14:42:05.470Z,24.40
2022-08-27T14:44:34.077Z,24.40
2022-08-27T14:47:09.689Z,24.30
2022-08-27T14:49:43.904Z,24.20
2022-08-27T14:52:14.742Z,24.20
2022-08-27T14:54:44.015Z,24.30
2022-08-27T14:57:13.088Z,24.40
2022-08-27T14:59:41.609Z,24.30
2022-08-27T15:02:14.746Z,24.20
2022-08-27T15:04:46.009Z,24.20
2022-08-27T15:07:16.960Z,24.20
2022-08-27T15:09:45.322Z,24.20
2022-08-27T15:12:26.119Z,24.20
2022-08-27T15:14:55.656Z,24.10
2022-08-27T15:17:35.137Z,24.10
2022-08-27T15:20:07.944Z,24.10
2022-08-27T15:22:38.474Z,24.10
2022-08-27T15:25:11.283Z,24.00
2022-08-27T15:27:39.569Z,23.90
2022-08-27T15:30:11.399Z,23.80
2022-08-27T15:32:44.640Z,23.70
2022-08-27T15:35:16.173Z,23.80
2022-08-27T15:37:46.245Z,23.70
2022-08-27T15:40:18.872Z,23.70
2022-08-27T15:42:51.395Z,23.80
2022-08-27T15:45:20.093Z,23.80
2022-08-27T15:47:51.892Z,23.90
2022-08-27T15:50:20.441Z,23.80
2022-08-27T15:52:51.229Z,23.80
2022-08-27T15:55:24.919Z,23.70
2022-08-27T15:57:55.217Z,23.70
2022-08-27T16:00:25.240Z,23.70
2022-08-27T16:02:55.359Z,23.70
2022-08-27T16:05:24.380Z,23.70
2022-08-27T16:08:07.299Z,23.80
2022-08-27T16:10:36.246Z,23.60
2022-08-27T16:13:05.405Z,23.60
2022-08-27T16:15:39.411Z,23.50
2022-08-27T16:18:10.578Z,23.50
2022-08-27T16:20:39.123Z,23.60
2022-08-27T16:23:07.868Z,23.60
2022-08-27T16:25:36.205Z,23.50
2022-08-27T16:28:05.019Z,23.50
2022-08-27T16:30:33.447Z,23.50
2022-08-27T16:33:01.694Z,23.50
2022-08-27T16:35:31.719Z,23.30
2022-08-27T16:38:00.030Z,23.10
2022-08-27T16:40:28.509Z,23.00
2022-08-27T16:42:56.916Z,22.90
2022-08-27T16:45:25.217Z,22.70
2022-08-27T16:48:11.244Z,22.70
2022-08-27T16:50:41.869Z,22.60
2022-08-27T16:53:14.096Z,22.50
2022-08-27T16:55:44.790Z,22.40
2022-08-27T16:58:20.573Z,22.40
2022-08-27T17:00:53.462Z,22.30
2022-08-27T17:03:24.343Z,22.20
2022-08-27T17:05:54.493Z,22.10
2022-08-27T17:08:26.225Z,22.00
2022-08-27T17:10:57.385Z,21.90
2022-08-27T17:13:32.527Z,21.80
2022-08-27T17:16:01.632Z,21.60
2022-08-27T17:18:30.447Z,21.60
2022-08-27T17:21:01.257Z,21.60
2022-08-27T17:23:37.157Z,21.50
2022-08-27T17:26:08.154Z,21.40
2022-08-27T17:28:39.274Z,21.30
2022-08-27T17:31:09.367Z,21.30
2022-08-27T17:33:41.027Z,21.20
2022-08-27T17:36:15.672Z,21.20
2022-08-27T17:38:45.129Z,21.20
2022-08-27T17:41:19.974Z,21.20
2022-08-27T17:43:48.345Z,21.10
2022-08-27T17:46:16.705Z,21.00
2022-08-27T17:48:45.170Z,21.00
2022-08-27T17:51:15.142Z,20.90
2022-08-27T17:53:48.444Z,21.00
2022-08-27T17:56:18.541Z,20.80
2022-08-27T17:58:47.096Z,20.80
2022-08-27T18:01:18.490Z,20.80
2022-08-27T18:03:48.614Z,21.10
2022-08-27T18:06:18.925Z,20.90
2022-08-27T18:08:47.958Z,20.80
2022-08-27T18:11:16.683Z,20.60
2022-08-27T18:13:48.468Z,20.50
2022-08-27T18:16:17.185Z,20.50
2022-08-27T18:18:45.712Z,20.50
2022-08-27T18:21:13.977Z,20.40
2022-08-27T18:23:55.019Z,20.30
2022-08-27T18:26:28.671Z,20.20
2022-08-27T18:28:58.475Z,20.10
2022-08-27T18:31:32.329Z,20.10
2022-08-27T18:34:01.589Z,20.10
2022-08-27T18:36:30.958Z,20.00
2022-08-27T18:39:00.527Z,20.10
2022-08-27T18:41:31.848Z,20.10
2022-08-27T18:44:02.064Z,20.00
2022-08-27T18:46:30.381Z,19.90
2022-08-27T18:48:58.632Z,19.90
2022-08-27T18:51:27.319Z,20.00
2022-08-27T18:54:06.208Z,19.80
2022-08-27T18:56:34.417Z,19.80
2022-08-27T18:59:02.613Z,19.80
2022-08-27T19:01:31.735Z,19.90
2022-08-27T19:04:00.166Z,19.80
2022-08-27T19:06:28.403Z,19.70
2022-08-27T19:08:57.920Z,19.70
2022-08-27T19:11:27.423Z,19.70
2022-08-27T19:13:55.719Z,19.70
2022-08-27T19:16:35.133Z,19.60
2022-08-27T19:19:05.649Z,19.50
2022-08-27T19:21:34.125Z,19.40
2022-08-27T19:24:04.132Z,19.30
2022-08-27T19:26:34.187Z,19.40
2022-08-27T19:29:02.540Z,19.40
2022-08-27T19:31:33.363Z,19.20
2022-08-27T19:34:01.629Z,19.10
2022-08-27T19:36:29.920Z,19.00
2022-08-27T19:38:58.458Z,19.00
2022-08-27T19:41:28.024Z,19.00
2022-08-27T19:43:58.089Z,19.00
2022-08-27T19:46:27.382Z,18.90
2022-08-27T19:48:57.835Z,18.90
2022-08-27T19:51:26.209Z,19.00
2022-08-27T19:53:54.369Z,19.00
2022-08-27T19:56:22.938Z,18.90
2022-08-27T19:58:54.074Z,18.90
2022-08-27T20:01:26.744Z,18.80
2022-08-27T20:03:57.842Z,18.70
2022-08-27T20:06:28.232Z,18.60
2022-08-27T20:08:56.575Z,18.60
2022-08-27T20:11:24.914Z,18.60
2022-08-27T20:13:53.242Z,18.50
2022-08-27T20:16:23.957Z,18.50
2022-08-27T20:18:56.370Z,18.50
2022-08-27T20:21:26.714Z,18.50
2022-08-27T20:23:54.967Z,18.30
2022-08-27T20:26:24.661Z,18.30
2022-08-27T20:28:53.881Z,18.50
2022-08-27T20:31:22.076Z,18.40
2022-08-27T20:33:50.347Z,18.20
2022-08-27T20:36:31.574Z,18.20
2022-08-27T20:39:00.441Z,18.20
2022-08-27T20:41:29.347Z,18.20
2022-08-27T20:43:57.600Z,18.20
2022-08-27T20:46:30.648Z,18.20
2022-08-27T20:48:59.248Z,18.20
2022-08-27T20:51:30.402Z,18.10
2022-08-27T20:54:18.527Z,18.10
2022-08-27T20:56:52.372Z,18.00
2022-08-27T20:59:38.868Z,17.90
2022-08-27T21:02:11.100Z,17.80
2022-08-27T21:04:42.898Z,18.10
2022-08-27T21:07:13.313Z,18.00
2022-08-27T21:09:56.515Z,17.90
2022-08-27T21:12:26.826Z,17.90
2022-08-27T21:14:57.998Z,17.80
2022-08-27T21:17:29.028Z,17.80
2022-08-27T21:19:57.570Z,17.70
2022-08-27T21:22:27.757Z,17.60
2022-08-27T21:24:56.499Z,17.50
2022-08-27T21:27:24.799Z,17.50
2022-08-27T21:29:53.845Z,17.60
2022-08-27T21:32:22.641Z,17.60
2022-08-27T21:34:51.220Z,17.50
2022-08-27T21:37:20.170Z,17.60
2022-08-27T21:39:49.758Z,17.50
2022-08-27T21:42:18.278Z,17.50
2022-08-27T21:44:46.620Z,17.40
2022-08-27T21:47:15.105Z,17.40
2022-08-27T21:49:43.391Z,17.40
2022-08-27T21:52:11.867Z,17.30
2022-08-27T21:54:42.364Z,17.40
2022-08-27T21:57:15.472Z,17.40
2022-08-27T21:59:47.187Z,17.40
2022-08-27T22:02:39.226Z,17.30
2022-08-27T22:05:05.792Z,17.20
2022-08-27T22:07:34.029Z,17.30
2022-08-27T22:10:02.294Z,17.30
2022-08-27T22:12:31.813Z,17.30
2022-08-27T22:15:00.186Z,17.10
2022-08-27T22:17:28.628Z,17.10
2022-08-27T22:19:56.914Z,17.20
2022-08-27T22:22:30.795Z,17.30
2022-08-27T22:24:59.524Z,17.30
2022-08-27T22:27:28.385Z,17.40
2022-08-27T22:29:58.008Z,17.30
2022-08-27T22:32:26.306Z,17.30
2022-08-27T22:34:54.562Z,17.20
2022-08-27T22:37:22.852Z,17.00
2022-08-27T22:39:51.243Z,17.00
2022-08-27T22:42:20.465Z,17.00
2022-08-27T22:44:48.891Z,16.90
2022-08-27T22:47:18.681Z,16.90
2022-08-27T22:49:46.849Z,16.90
2022-08-27T22:52:15.196Z,16.80
2022-08-27T22:54:43.444Z,16.70
2022-08-27T22:57:11.732Z,16.70
2022-08-27T22:59:40.475Z,16.70
2022-08-27T23:02:10.354Z,16.70
2022-08-27T23:04:54.648Z,16.70
2022-08-27T23:07:23.961Z,16.70
2022-08-27T23:09:52.600Z,16.60
2022-08-27T23:12:21.949Z,16.60
2022-08-27T23:14:50.533Z,16.60
2022-08-27T23:17:19.118Z,16.70
2022-08-27T23:19:48.806Z,16.70
2022-08-27T23:22:17.104Z,16.60
2022-08-27T23:25:03.210Z,16.50
2022-08-27T23:27:31.989Z,16.40
2022-08-27T23:30:03.409Z,16.40
2022-08-27T23:32:32.302Z,16.30
2022-08-27T23:35:03.118Z,16.30
2022-08-27T23:37:31.881Z,16.40
2022-08-27T23:40:00.278Z,16.40
2022-08-27T23:42:28.866Z,16.40
2022-08-27T23:44:57.694Z,16.40
2022-08-27T23:47:26.083Z,16.40
2022-08-27T23:49:54.351Z,16.30
2022-08-27T23:52:24.058Z,16.20
2022-08-27T23:54:52.241Z,16.20
2022-08-27T23:57:20.516Z,16.20
2022-08-27T23:59:48.815Z,16.10
